sensor_id;sensor_type;location;lat;lon;timestamp;temperature;humidity
65472;DHT22;52068;50.710;14.492;2022-10-28T00:01:51;21.75;53.87
65472;DHT22;52068;50.710;14.492;2022-10-28T00:04:17;21.77;54.14
65472;DHT22;52068;50.710;14.492;2022-10-28T00:06:42;21.74;54.02
65472;DHT22;52068;50.710;14.492;2022-10-28T00:09:07;21.78;53.92
65472;DHT22;52068;50.710;14.492;2022-10-28T00:11:33;21.77;53.87
65472;DHT22;52068;50.710;14.492;2022-10-28T00:13:59;21.77;54.01
65472;DHT22;52068;50.710;14.492;2022-10-28T00:16:28;21.74;54.16
65472;DHT22;52068;50.710;14.492;2022-10-28T00:18:54;21.74;54.17
65472;DHT22;52068;50.710;14.492;2022-10-28T00:21:24;21.74;53.92
65472;DHT22;52068;50.710;14.492;2022-10-28T00:23:49;21.73;53.85
65472;DHT22;52068;50.710;14.492;2022-10-28T00:26:16;21.74;53.97
65472;DHT22;52068;50.710;14.492;2022-10-28T00:28:42;21.74;54.04
65472;DHT22;52068;50.710;14.492;2022-10-28T00:31:08;21.71;54.01
65472;DHT22;52068;50.710;14.492;2022-10-28T00:33:34;21.71;53.97
65472;DHT22;52068;50.710;14.492;2022-10-28T00:36:15;21.73;54.38
65472;DHT22;52068;50.710;14.492;2022-10-28T00:38:41;21.73;54.08
65472;DHT22;52068;50.710;14.492;2022-10-28T00:41:07;21.70;54.07
65472;DHT22;52068;50.710;14.492;2022-10-28T00:43:33;21.70;54.04
65472;DHT22;52068;50.710;14.492;2022-10-28T00:45:58;21.70;53.98
65472;DHT22;52068;50.710;14.492;2022-10-28T00:48:23;21.70;53.83
65472;DHT22;52068;50.710;14.492;2022-10-28T00:50:49;21.68;53.96
65472;DHT22;52068;50.710;14.492;2022-10-28T00:53:18;21.68;54.15
65472;DHT22;52068;50.710;14.492;2022-10-28T00:55:44;21.65;53.92
65472;DHT22;52068;50.710;14.492;2022-10-28T00:58:11;21.67;54.01
65472;DHT22;52068;50.710;14.492;2022-10-28T01:00:37;21.67;53.97
65472;DHT22;52068;50.710;14.492;2022-10-28T01:03:02;21.67;54.01
65472;DHT22;52068;50.710;14.492;2022-10-28T01:05:28;21.65;53.89
65472;DHT22;52068;50.710;14.492;2022-10-28T01:07:56;21.64;54.03
65472;DHT22;52068;50.710;14.492;2022-10-28T01:10:23;21.65;53.99
65472;DHT22;52068;50.710;14.492;2022-10-28T01:13:06;21.65;54.01
65472;DHT22;52068;50.710;14.492;2022-10-28T01:15:50;21.68;53.99
65472;DHT22;52068;50.710;14.492;2022-10-28T01:18:19;21.67;53.93
65472;DHT22;52068;50.710;14.492;2022-10-28T01:33:57;21.64;53.91
65472;DHT22;52068;50.710;14.492;2022-10-28T01:36:30;21.63;53.82
65472;DHT22;52068;50.710;14.492;2022-10-28T01:39:05;21.64;53.89
65472;DHT22;52068;50.710;14.492;2022-10-28T01:41:37;21.65;53.90
65472;DHT22;52068;50.710;14.492;2022-10-28T01:46:34;21.65;53.95
65472;DHT22;52068;50.710;14.492;2022-10-28T01:49:08;21.65;53.83
65472;DHT22;52068;50.710;14.492;2022-10-28T01:51:36;21.67;53.94
65472;DHT22;52068;50.710;14.492;2022-10-28T01:54:03;21.67;53.77
65472;DHT22;52068;50.710;14.492;2022-10-28T01:56:31;21.68;53.70
65472;DHT22;52068;50.710;14.492;2022-10-28T01:58:58;21.65;53.89
65472;DHT22;52068;50.710;14.492;2022-10-28T02:01:24;21.68;53.86
65472;DHT22;52068;50.710;14.492;2022-10-28T02:03:50;21.67;53.79
65472;DHT22;52068;50.710;14.492;2022-10-28T02:06:17;21.68;53.74
65472;DHT22;52068;50.710;14.492;2022-10-28T02:08:48;21.64;53.78
65472;DHT22;52068;50.710;14.492;2022-10-28T02:11:23;21.67;53.85
65472;DHT22;52068;50.710;14.492;2022-10-28T02:24:12;21.70;53.97
65472;DHT22;52068;50.710;14.492;2022-10-28T02:26:43;21.68;53.97
65472;DHT22;52068;50.710;14.492;2022-10-28T02:32:10;21.68;53.94
65472;DHT22;52068;50.710;14.492;2022-10-28T02:34:38;21.68;54.01
65472;DHT22;52068;50.710;14.492;2022-10-28T02:37:07;21.68;54.01
65472;DHT22;52068;50.710;14.492;2022-10-28T02:39:37;21.70;54.05
65472;DHT22;52068;50.710;14.492;2022-10-28T02:44:44;21.67;54.05
65472;DHT22;52068;50.710;14.492;2022-10-28T02:47:13;21.67;54.03
65472;DHT22;52068;50.710;14.492;2022-10-28T02:49:40;21.70;53.96
65472;DHT22;52068;50.710;14.492;2022-10-28T02:52:06;21.64;53.90
65472;DHT22;52068;50.710;14.492;2022-10-28T02:54:42;21.70;53.84
65472;DHT22;52068;50.710;14.492;2022-10-28T02:57:11;21.68;53.75
65472;DHT22;52068;50.710;14.492;2022-10-28T02:59:37;21.68;53.82
65472;DHT22;52068;50.710;14.492;2022-10-28T03:02:03;21.70;53.92
65472;DHT22;52068;50.710;14.492;2022-10-28T03:04:28;21.68;53.79
65472;DHT22;52068;50.710;14.492;2022-10-28T03:06:53;21.70;53.92
65472;DHT22;52068;50.710;14.492;2022-10-28T03:09:18;21.70;53.83
65472;DHT22;52068;50.710;14.492;2022-10-28T03:11:44;21.71;53.81
65472;DHT22;52068;50.710;14.492;2022-10-28T03:14:09;21.70;53.80
65472;DHT22;52068;50.710;14.492;2022-10-28T03:16:34;21.70;53.80
65472;DHT22;52068;50.710;14.492;2022-10-28T03:18:59;21.71;53.87
65472;DHT22;52068;50.710;14.492;2022-10-28T03:21:24;21.70;53.78
65472;DHT22;52068;50.710;14.492;2022-10-28T03:23:50;21.71;53.73
65472;DHT22;52068;50.710;14.492;2022-10-28T03:26:15;21.71;53.72
65472;DHT22;52068;50.710;14.492;2022-10-28T03:28:40;21.73;53.69
65472;DHT22;52068;50.710;14.492;2022-10-28T03:31:05;21.70;53.66
65472;DHT22;52068;50.710;14.492;2022-10-28T03:33:31;21.73;53.67
65472;DHT22;52068;50.710;14.492;2022-10-28T03:35:56;21.73;53.67
65472;DHT22;52068;50.710;14.492;2022-10-28T03:38:21;21.73;53.60
65472;DHT22;52068;50.710;14.492;2022-10-28T03:40:47;21.73;53.76
65472;DHT22;52068;50.710;14.492;2022-10-28T03:43:13;21.71;53.68
65472;DHT22;52068;50.710;14.492;2022-10-28T03:45:38;21.73;53.77
65472;DHT22;52068;50.710;14.492;2022-10-28T03:48:03;21.74;53.74
65472;DHT22;52068;50.710;14.492;2022-10-28T03:50:29;21.71;53.88
65472;DHT22;52068;50.710;14.492;2022-10-28T03:52:54;21.74;53.84
65472;DHT22;52068;50.710;14.492;2022-10-28T03:55:19;21.73;53.63
65472;DHT22;52068;50.710;14.492;2022-10-28T03:57:44;21.73;53.80
65472;DHT22;52068;50.710;14.492;2022-10-28T04:00:10;21.73;53.73
65472;DHT22;52068;50.710;14.492;2022-10-28T04:02:35;21.74;53.59
65472;DHT22;52068;50.710;14.492;2022-10-28T04:05:00;21.73;53.57
65472;DHT22;52068;50.710;14.492;2022-10-28T04:07:26;21.73;53.59
65472;DHT22;52068;50.710;14.492;2022-10-28T04:09:51;21.73;53.62
65472;DHT22;52068;50.710;14.492;2022-10-28T04:12:19;21.74;53.66
65472;DHT22;52068;50.710;14.492;2022-10-28T04:14:44;21.71;53.70
65472;DHT22;52068;50.710;14.492;2022-10-28T04:17:10;21.71;53.67
65472;DHT22;52068;50.710;14.492;2022-10-28T04:19:35;21.68;53.65
65472;DHT22;52068;50.710;14.492;2022-10-28T04:22:00;21.73;53.92
65472;DHT22;52068;50.710;14.492;2022-10-28T04:24:25;21.73;53.93
65472;DHT22;52068;50.710;14.492;2022-10-28T04:26:51;21.71;53.78
65472;DHT22;52068;50.710;14.492;2022-10-28T04:29:16;21.74;53.70
65472;DHT22;52068;50.710;14.492;2022-10-28T04:31:41;21.73;53.66
65472;DHT22;52068;50.710;14.492;2022-10-28T04:34:07;21.74;53.72
65472;DHT22;52068;50.710;14.492;2022-10-28T04:36:32;21.71;53.79
65472;DHT22;52068;50.710;14.492;2022-10-28T04:38:57;21.74;53.74
65472;DHT22;52068;50.710;14.492;2022-10-28T04:41:22;21.73;53.72
65472;DHT22;52068;50.710;14.492;2022-10-28T04:43:48;21.73;53.65
65472;DHT22;52068;50.710;14.492;2022-10-28T04:46:13;21.74;53.65
65472;DHT22;52068;50.710;14.492;2022-10-28T04:48:38;21.74;53.64
65472;DHT22;52068;50.710;14.492;2022-10-28T04:51:03;21.74;53.65
65472;DHT22;52068;50.710;14.492;2022-10-28T04:53:29;21.77;53.69
65472;DHT22;52068;50.710;14.492;2022-10-28T04:55:57;21.75;53.63
65472;DHT22;52068;50.710;14.492;2022-10-28T04:58:23;21.75;53.67
65472;DHT22;52068;50.710;14.492;2022-10-28T05:00:48;21.75;53.68
65472;DHT22;52068;50.710;14.492;2022-10-28T05:03:13;21.77;53.66
65472;DHT22;52068;50.710;14.492;2022-10-28T05:05:39;21.71;53.66
65472;DHT22;52068;50.710;14.492;2022-10-28T05:08:05;21.75;53.65
65472;DHT22;52068;50.710;14.492;2022-10-28T05:10:30;21.74;53.66
65472;DHT22;52068;50.710;14.492;2022-10-28T05:12:55;21.74;53.68
65472;DHT22;52068;50.710;14.492;2022-10-28T05:15:20;21.77;53.66
65472;DHT22;52068;50.710;14.492;2022-10-28T05:17:46;21.74;53.70
65472;DHT22;52068;50.710;14.492;2022-10-28T05:20:12;21.77;53.79
65472;DHT22;52068;50.710;14.492;2022-10-28T05:22:40;21.77;53.80
65472;DHT22;52068;50.710;14.492;2022-10-28T05:25:09;21.75;53.77
65472;DHT22;52068;50.710;14.492;2022-10-28T05:27:34;21.78;53.87
65472;DHT22;52068;50.710;14.492;2022-10-28T05:29:59;21.75;54.20
65472;DHT22;52068;50.710;14.492;2022-10-28T05:32:24;21.74;54.09
65472;DHT22;52068;50.710;14.492;2022-10-28T05:34:50;21.77;54.09
65472;DHT22;52068;50.710;14.492;2022-10-28T05:37:15;21.74;54.21
65472;DHT22;52068;50.710;14.492;2022-10-28T05:39:40;21.74;54.12
65472;DHT22;52068;50.710;14.492;2022-10-28T05:42:05;21.75;54.12
65472;DHT22;52068;50.710;14.492;2022-10-28T05:44:31;21.74;54.09
65472;DHT22;52068;50.710;14.492;2022-10-28T05:46:56;21.74;53.94
65472;DHT22;52068;50.710;14.492;2022-10-28T05:49:21;21.78;54.05
65472;DHT22;52068;50.710;14.492;2022-10-28T05:51:47;21.83;54.07
65472;DHT22;52068;50.710;14.492;2022-10-28T05:54:12;21.83;54.02
65472;DHT22;52068;50.710;14.492;2022-10-28T05:56:37;21.90;53.72
65472;DHT22;52068;50.710;14.492;2022-10-28T05:59:03;21.95;53.49
65472;DHT22;52068;50.710;14.492;2022-10-28T06:01:28;22.01;53.36
65472;DHT22;52068;50.710;14.492;2022-10-28T06:03:53;22.06;53.10
65472;DHT22;52068;50.710;14.492;2022-10-28T06:06:19;22.12;52.98
65472;DHT22;52068;50.710;14.492;2022-10-28T06:08:44;22.15;52.91
65472;DHT22;52068;50.710;14.492;2022-10-28T06:11:09;22.18;52.96
65472;DHT22;52068;50.710;14.492;2022-10-28T06:13:34;22.21;53.03
65472;DHT22;52068;50.710;14.492;2022-10-28T06:16:00;22.25;53.08
65472;DHT22;52068;50.710;14.492;2022-10-28T06:18:25;22.26;52.98
65472;DHT22;52068;50.710;14.492;2022-10-28T06:20:53;22.26;52.90
65472;DHT22;52068;50.710;14.492;2022-10-28T06:23:19;22.25;53.04
65472;DHT22;52068;50.710;14.492;2022-10-28T06:25:44;22.21;53.09
65472;DHT22;52068;50.710;14.492;2022-10-28T06:28:10;22.22;53.10
65472;DHT22;52068;50.710;14.492;2022-10-28T06:30:35;22.18;53.24
65472;DHT22;52068;50.710;14.492;2022-10-28T06:33:00;22.15;53.30
65472;DHT22;52068;50.710;14.492;2022-10-28T06:35:25;22.15;52.90
65472;DHT22;52068;50.710;14.492;2022-10-28T06:37:54;22.14;52.86
65472;DHT22;52068;50.710;14.492;2022-10-28T06:40:20;22.14;52.62
65472;DHT22;52068;50.710;14.492;2022-10-28T06:42:45;22.14;52.54
65472;DHT22;52068;50.710;14.492;2022-10-28T06:45:10;22.09;52.52
65472;DHT22;52068;50.710;14.492;2022-10-28T06:47:36;22.06;52.54
65472;DHT22;52068;50.710;14.492;2022-10-28T06:50:01;22.08;52.35
65472;DHT22;52068;50.710;14.492;2022-10-28T06:52:26;22.05;52.33
65472;DHT22;52068;50.710;14.492;2022-10-28T06:54:51;22.04;52.81
65472;DHT22;52068;50.710;14.492;2022-10-28T06:57:17;22.04;53.02
65472;DHT22;52068;50.710;14.492;2022-10-28T06:59:42;22.05;52.93
65472;DHT22;52068;50.710;14.492;2022-10-28T07:02:10;22.04;52.91
65472;DHT22;52068;50.710;14.492;2022-10-28T07:04:36;22.04;52.56
65472;DHT22;52068;50.710;14.492;2022-10-28T07:07:01;22.04;52.72
65472;DHT22;52068;50.710;14.492;2022-10-28T07:09:27;22.05;52.80
65472;DHT22;52068;50.710;14.492;2022-10-28T07:11:52;22.06;52.51
65472;DHT22;52068;50.710;14.492;2022-10-28T07:14:17;22.08;52.38
65472;DHT22;52068;50.710;14.492;2022-10-28T07:16:42;22.11;52.27
65472;DHT22;52068;50.710;14.492;2022-10-28T07:19:08;22.14;52.24
65472;DHT22;52068;50.710;14.492;2022-10-28T07:21:33;22.15;52.10
65472;DHT22;52068;50.710;14.492;2022-10-28T07:23:59;22.16;51.95
65472;DHT22;52068;50.710;14.492;2022-10-28T07:26:24;22.15;51.84
65472;DHT22;52068;50.710;14.492;2022-10-28T07:28:50;22.16;51.79
65472;DHT22;52068;50.710;14.492;2022-10-28T07:31:15;22.18;51.65
65472;DHT22;52068;50.710;14.492;2022-10-28T07:33:40;22.16;51.64
65472;DHT22;52068;50.710;14.492;2022-10-28T07:36:06;22.14;51.55
65472;DHT22;52068;50.710;14.492;2022-10-28T07:38:31;22.22;51.85
65472;DHT22;52068;50.710;14.492;2022-10-28T07:40:57;22.24;52.03
65472;DHT22;52068;50.710;14.492;2022-10-28T07:43:22;22.25;52.16
65472;DHT22;52068;50.710;14.492;2022-10-28T07:45:47;22.22;52.44
65472;DHT22;52068;50.710;14.492;2022-10-28T07:48:12;22.22;52.55
65472;DHT22;52068;50.710;14.492;2022-10-28T07:50:41;22.19;52.79
65472;DHT22;52068;50.710;14.492;2022-10-28T07:53:06;22.22;52.90
65472;DHT22;52068;50.710;14.492;2022-10-28T07:55:31;22.19;52.91
65472;DHT22;52068;50.710;14.492;2022-10-28T07:57:57;22.21;53.03
65472;DHT22;52068;50.710;14.492;2022-10-28T08:00:22;22.22;53.01
65472;DHT22;52068;50.710;14.492;2022-10-28T08:02:48;22.24;53.12
65472;DHT22;52068;50.710;14.492;2022-10-28T08:05:13;22.24;53.14
65472;DHT22;52068;50.710;14.492;2022-10-28T08:07:38;22.24;53.17
65472;DHT22;52068;50.710;14.492;2022-10-28T08:10:04;22.26;53.12
65472;DHT22;52068;50.710;14.492;2022-10-28T08:12:29;22.28;53.01
65472;DHT22;52068;50.710;14.492;2022-10-28T08:14:54;22.33;53.26
65472;DHT22;52068;50.710;14.492;2022-10-28T08:17:20;22.33;53.28
65472;DHT22;52068;50.710;14.492;2022-10-28T08:19:45;22.36;53.07
65472;DHT22;52068;50.710;14.492;2022-10-28T08:22:10;22.41;53.08
65472;DHT22;52068;50.710;14.492;2022-10-28T08:24:36;22.43;53.02
65472;DHT22;52068;50.710;14.492;2022-10-28T08:27:01;22.43;53.03
65472;DHT22;52068;50.710;14.492;2022-10-28T08:29:26;22.45;53.54
65472;DHT22;52068;50.710;14.492;2022-10-28T08:31:51;22.45;53.48
65472;DHT22;52068;50.710;14.492;2022-10-28T08:34:17;22.46;53.47
65472;DHT22;52068;50.710;14.492;2022-10-28T08:36:42;22.53;53.29
65472;DHT22;52068;50.710;14.492;2022-10-28T08:39:07;22.57;53.12
65472;DHT22;52068;50.710;14.492;2022-10-28T08:41:35;22.60;53.04
65472;DHT22;52068;50.710;14.492;2022-10-28T08:44:19;22.62;52.96
65472;DHT22;52068;50.710;14.492;2022-10-28T08:46:55;22.60;52.80
65472;DHT22;52068;50.710;14.492;2022-10-28T08:49:22;22.59;52.71
65472;DHT22;52068;50.710;14.492;2022-10-28T08:54:25;22.60;52.65
65472;DHT22;52068;50.710;14.492;2022-10-28T08:56:51;22.60;52.60
65472;DHT22;52068;50.710;14.492;2022-10-28T08:59:24;22.59;52.55
65472;DHT22;52068;50.710;14.492;2022-10-28T09:01:58;22.59;52.51
65472;DHT22;52068;50.710;14.492;2022-10-28T09:04:38;22.62;52.46
65472;DHT22;52068;50.710;14.492;2022-10-28T09:07:04;22.62;52.41
65472;DHT22;52068;50.710;14.492;2022-10-28T09:09:29;22.62;52.39
65472;DHT22;52068;50.710;14.492;2022-10-28T09:24:50;22.64;52.27
65472;DHT22;52068;50.710;14.492;2022-10-28T09:27:31;22.66;52.23
65472;DHT22;52068;50.710;14.492;2022-10-28T09:34:53;22.67;52.19
65472;DHT22;52068;50.710;14.492;2022-10-28T09:37:23;22.66;52.19
65472;DHT22;52068;50.710;14.492;2022-10-28T09:39:53;22.64;52.26
65472;DHT22;52068;50.710;14.492;2022-10-28T09:42:21;22.67;52.17
65472;DHT22;52068;50.710;14.492;2022-10-28T09:44:51;22.66;52.19
65472;DHT22;52068;50.710;14.492;2022-10-28T09:47:19;22.63;52.20
65472;DHT22;52068;50.710;14.492;2022-10-28T09:49:45;22.67;52.15
65472;DHT22;52068;50.710;14.492;2022-10-28T09:52:15;22.72;52.05
65472;DHT22;52068;50.710;14.492;2022-10-28T09:54:45;22.70;52.00
65472;DHT22;52068;50.710;14.492;2022-10-28T09:57:12;22.72;52.01
65472;DHT22;52068;50.710;14.492;2022-10-28T09:59:37;22.73;51.96
65472;DHT22;52068;50.710;14.492;2022-10-28T10:02:03;22.73;51.96
65472;DHT22;52068;50.710;14.492;2022-10-28T10:04:28;22.76;52.04
65472;DHT22;52068;50.710;14.492;2022-10-28T10:09:27;22.72;52.02
65472;DHT22;52068;50.710;14.492;2022-10-28T10:12:15;22.73;51.97
65472;DHT22;52068;50.710;14.492;2022-10-28T10:14:41;22.74;52.04
65472;DHT22;52068;50.710;14.492;2022-10-28T10:17:14;22.72;52.04
65472;DHT22;52068;50.710;14.492;2022-10-28T10:22:39;22.73;52.08
65472;DHT22;52068;50.710;14.492;2022-10-28T10:25:26;22.73;52.05
65472;DHT22;52068;50.710;14.492;2022-10-28T10:27:54;22.70;52.08
65472;DHT22;52068;50.710;14.492;2022-10-28T10:30:44;22.72;52.05
65472;DHT22;52068;50.710;14.492;2022-10-28T10:33:17;22.72;52.04
65472;DHT22;52068;50.710;14.492;2022-10-28T10:35:43;22.73;52.04
65472;DHT22;52068;50.710;14.492;2022-10-28T10:38:16;22.73;52.03
65472;DHT22;52068;50.710;14.492;2022-10-28T10:40:49;22.70;52.09
65472;DHT22;52068;50.710;14.492;2022-10-28T10:43:22;22.74;52.01
65472;DHT22;52068;50.710;14.492;2022-10-28T10:48:16;22.73;51.98
65472;DHT22;52068;50.710;14.492;2022-10-28T10:50:44;22.74;51.98
65472;DHT22;52068;50.710;14.492;2022-10-28T10:53:15;22.74;52.21
65472;DHT22;52068;50.710;14.492;2022-10-28T10:55:42;22.74;52.28
65472;DHT22;52068;50.710;14.492;2022-10-28T10:58:17;22.72;52.45
65472;DHT22;52068;50.710;14.492;2022-10-28T11:00:43;22.72;52.60
65472;DHT22;52068;50.710;14.492;2022-10-28T11:03:12;22.67;52.67
65472;DHT22;52068;50.710;14.492;2022-10-28T11:05:46;22.70;52.67
65472;DHT22;52068;50.710;14.492;2022-10-28T11:08:14;22.74;52.47
65472;DHT22;52068;50.710;14.492;2022-10-28T11:10:44;22.77;52.33
65472;DHT22;52068;50.710;14.492;2022-10-28T11:13:26;22.79;52.25
65472;DHT22;52068;50.710;14.492;2022-10-28T11:16:02;22.80;52.32
65472;DHT22;52068;50.710;14.492;2022-10-28T11:18:28;22.83;52.25
65472;DHT22;52068;50.710;14.492;2022-10-28T11:26:12;22.94;52.02
65472;DHT22;52068;50.710;14.492;2022-10-28T11:33:51;22.97;51.95
65472;DHT22;52068;50.710;14.492;2022-10-28T11:39:01;22.99;51.92
65472;DHT22;52068;50.710;14.492;2022-10-28T11:41:50;22.92;52.00
65472;DHT22;52068;50.710;14.492;2022-10-28T11:44:32;22.87;52.08
65472;DHT22;52068;50.710;14.492;2022-10-28T11:47:13;22.89;52.18
65472;DHT22;52068;50.710;14.492;2022-10-28T12:07:34;22.77;52.58
65472;DHT22;52068;50.710;14.492;2022-10-28T12:13:12;22.77;52.52
65472;DHT22;52068;50.710;14.492;2022-10-28T12:23:07;22.79;52.47
65472;DHT22;52068;50.710;14.492;2022-10-28T12:25:34;22.79;52.46
65472;DHT22;52068;50.710;14.492;2022-10-28T12:28:01;22.80;52.53
65472;DHT22;52068;50.710;14.492;2022-10-28T12:30:29;22.77;52.54
65472;DHT22;52068;50.710;14.492;2022-10-28T12:32:58;22.80;52.52
65472;DHT22;52068;50.710;14.492;2022-10-28T12:35:31;22.79;52.53
65472;DHT22;52068;50.710;14.492;2022-10-28T12:38:10;22.83;52.53
65472;DHT22;52068;50.710;14.492;2022-10-28T12:40:45;22.82;52.57
65472;DHT22;52068;50.710;14.492;2022-10-28T12:45:55;22.84;52.66
65472;DHT22;52068;50.710;14.492;2022-10-28T12:48:25;22.83;52.58
65472;DHT22;52068;50.710;14.492;2022-10-28T12:50:53;22.87;52.62
65472;DHT22;52068;50.710;14.492;2022-10-28T12:53:23;22.86;52.67
65472;DHT22;52068;50.710;14.492;2022-10-28T12:55:56;22.87;52.69
65472;DHT22;52068;50.710;14.492;2022-10-28T12:58:35;22.89;52.61
65472;DHT22;52068;50.710;14.492;2022-10-28T13:01:07;22.90;52.66
65472;DHT22;52068;50.710;14.492;2022-10-28T13:03:34;22.92;52.53
65472;DHT22;52068;50.710;14.492;2022-10-28T13:13:46;23.07;52.93
65472;DHT22;52068;50.710;14.492;2022-10-28T13:16:31;23.10;52.84
65472;DHT22;52068;50.710;14.492;2022-10-28T13:24:30;23.18;52.66
65472;DHT22;52068;50.710;14.492;2022-10-28T13:27:00;23.20;52.58
65472;DHT22;52068;50.710;14.492;2022-10-28T13:29:27;23.25;52.46
65472;DHT22;52068;50.710;14.492;2022-10-28T13:31:53;23.25;52.40
65472;DHT22;52068;50.710;14.492;2022-10-28T13:34:20;23.24;52.37
65472;DHT22;52068;50.710;14.492;2022-10-28T13:36:52;23.27;52.25
65472;DHT22;52068;50.710;14.492;2022-10-28T13:39:23;23.28;52.10
65472;DHT22;52068;50.710;14.492;2022-10-28T13:41:52;23.31;52.01
65472;DHT22;52068;50.710;14.492;2022-10-28T13:44:45;23.34;52.07
65472;DHT22;52068;50.710;14.492;2022-10-28T13:50:07;23.35;52.19
65472;DHT22;52068;50.710;14.492;2022-10-28T13:52:24;23.38;52.16
65472;DHT22;52068;50.710;14.492;2022-10-28T13:54:53;23.37;52.16
65472;DHT22;52068;50.710;14.492;2022-10-28T13:57:27;23.37;52.22
65472;DHT22;52068;50.710;14.492;2022-10-28T14:02:38;23.37;52.34
65472;DHT22;52068;50.710;14.492;2022-10-28T14:05:05;23.35;52.50
65472;DHT22;52068;50.710;14.492;2022-10-28T14:07:32;23.38;52.49
65472;DHT22;52068;50.710;14.492;2022-10-28T14:10:21;23.37;52.50
65472;DHT22;52068;50.710;14.492;2022-10-28T14:12:48;23.41;52.47
65472;DHT22;52068;50.710;14.492;2022-10-28T14:15:16;23.43;52.47
65472;DHT22;52068;50.710;14.492;2022-10-28T14:17:50;23.43;52.59
65472;DHT22;52068;50.710;14.492;2022-10-28T14:22:49;23.41;52.55
65472;DHT22;52068;50.710;14.492;2022-10-28T14:27:59;23.40;52.59
65472;DHT22;52068;50.710;14.492;2022-10-28T14:30:24;23.44;52.58
65472;DHT22;52068;50.710;14.492;2022-10-28T14:32:55;23.44;52.55
65472;DHT22;52068;50.710;14.492;2022-10-28T14:35:42;23.45;52.50
65472;DHT22;52068;50.710;14.492;2022-10-28T14:48:40;23.50;52.48
65472;DHT22;52068;50.710;14.492;2022-10-28T14:51:10;23.50;52.48
65472;DHT22;52068;50.710;14.492;2022-10-28T14:53:38;23.48;52.53
65472;DHT22;52068;50.710;14.492;2022-10-28T14:56:05;23.51;52.53
65472;DHT22;52068;50.710;14.492;2022-10-28T14:58:41;23.52;52.52
65472;DHT22;52068;50.710;14.492;2022-10-28T15:03:59;23.48;52.51
65472;DHT22;52068;50.710;14.492;2022-10-28T15:08:57;23.50;52.47
65472;DHT22;52068;50.710;14.492;2022-10-28T15:11:26;23.50;52.49
65472;DHT22;52068;50.710;14.492;2022-10-28T15:13:52;23.50;52.52
65472;DHT22;52068;50.710;14.492;2022-10-28T15:16:18;23.47;52.57
65472;DHT22;52068;50.710;14.492;2022-10-28T15:18:47;23.47;52.60
65472;DHT22;52068;50.710;14.492;2022-10-28T15:21:15;23.47;52.54
65472;DHT22;52068;50.710;14.492;2022-10-28T15:23:41;23.48;52.66
65472;DHT22;52068;50.710;14.492;2022-10-28T15:26:11;23.48;52.58
65472;DHT22;52068;50.710;14.492;2022-10-28T15:28:36;23.48;52.60
65472;DHT22;52068;50.710;14.492;2022-10-28T15:31:02;23.48;52.59
65472;DHT22;52068;50.710;14.492;2022-10-28T15:33:28;23.51;52.52
65472;DHT22;52068;50.710;14.492;2022-10-28T15:36:05;23.50;52.49
65472;DHT22;52068;50.710;14.492;2022-10-28T15:38:31;23.47;52.55
65472;DHT22;52068;50.710;14.492;2022-10-28T15:40:58;23.51;52.58
65472;DHT22;52068;50.710;14.492;2022-10-28T15:43:25;23.48;52.58
65472;DHT22;52068;50.710;14.492;2022-10-28T15:45:50;23.47;52.57
65472;DHT22;52068;50.710;14.492;2022-10-28T15:48:18;23.45;52.72
65472;DHT22;52068;50.710;14.492;2022-10-28T15:50:45;23.44;52.66
65472;DHT22;52068;50.710;14.492;2022-10-28T15:53:31;23.45;52.69
65472;DHT22;52068;50.710;14.492;2022-10-28T15:56:07;23.45;52.60
65472;DHT22;52068;50.710;14.492;2022-10-28T15:58:34;23.44;52.52
65472;DHT22;52068;50.710;14.492;2022-10-28T16:01:02;23.43;52.56
65472;DHT22;52068;50.710;14.492;2022-10-28T16:05:56;23.44;52.56
65472;DHT22;52068;50.710;14.492;2022-10-28T16:08:25;23.44;52.50
65472;DHT22;52068;50.710;14.492;2022-10-28T16:13:17;23.43;52.56
65472;DHT22;52068;50.710;14.492;2022-10-28T16:15:44;23.43;52.61
65472;DHT22;52068;50.710;14.492;2022-10-28T16:18:11;23.40;52.84
65472;DHT22;52068;50.710;14.492;2022-10-28T16:20:36;23.40;53.05
65472;DHT22;52068;50.710;14.492;2022-10-28T16:23:01;23.35;53.05
65472;DHT22;52068;50.710;14.492;2022-10-28T16:25:28;23.31;53.17
65472;DHT22;52068;50.710;14.492;2022-10-28T16:27:53;23.30;53.32
65472;DHT22;52068;50.710;14.492;2022-10-28T16:30:20;23.31;53.35
65472;DHT22;52068;50.710;14.492;2022-10-28T16:32:46;23.33;53.52
65472;DHT22;52068;50.710;14.492;2022-10-28T16:35:12;23.27;53.68
65472;DHT22;52068;50.710;14.492;2022-10-28T16:37:38;23.30;53.55
65472;DHT22;52068;50.710;14.492;2022-10-28T16:40:04;23.27;53.59
65472;DHT22;52068;50.710;14.492;2022-10-28T16:42:30;23.23;53.57
65472;DHT22;52068;50.710;14.492;2022-10-28T16:44:55;23.20;53.56
65472;DHT22;52068;50.710;14.492;2022-10-28T16:47:21;23.20;53.64
65472;DHT22;52068;50.710;14.492;2022-10-28T16:49:49;23.17;53.63
65472;DHT22;52068;50.710;14.492;2022-10-28T16:52:16;23.18;53.70
65472;DHT22;52068;50.710;14.492;2022-10-28T16:54:41;23.13;53.77
65472;DHT22;52068;50.710;14.492;2022-10-28T16:57:07;23.17;53.86
65472;DHT22;52068;50.710;14.492;2022-10-28T16:59:32;23.14;53.89
65472;DHT22;52068;50.710;14.492;2022-10-28T17:01:57;23.14;53.94
65472;DHT22;52068;50.710;14.492;2022-10-28T17:04:23;23.14;53.70
65472;DHT22;52068;50.710;14.492;2022-10-28T17:06:49;23.17;53.51
65472;DHT22;52068;50.710;14.492;2022-10-28T17:09:14;23.15;53.45
65472;DHT22;52068;50.710;14.492;2022-10-28T17:11:39;23.15;53.20
65472;DHT22;52068;50.710;14.492;2022-10-28T17:14:04;23.17;53.00
65472;DHT22;52068;50.710;14.492;2022-10-28T17:16:30;23.18;52.87
65472;DHT22;52068;50.710;14.492;2022-10-28T17:18:55;23.24;52.81
65472;DHT22;52068;50.710;14.492;2022-10-28T17:21:20;23.25;52.68
65472;DHT22;52068;50.710;14.492;2022-10-28T17:23:46;23.30;52.48
65472;DHT22;52068;50.710;14.492;2022-10-28T17:26:11;23.33;52.29
65472;DHT22;52068;50.710;14.492;2022-10-28T17:28:36;23.31;52.26
65472;DHT22;52068;50.710;14.492;2022-10-28T17:31:05;23.35;52.09
65472;DHT22;52068;50.710;14.492;2022-10-28T17:33:31;23.33;52.14
65472;DHT22;52068;50.710;14.492;2022-10-28T17:36:03;23.28;52.45
65472;DHT22;52068;50.710;14.492;2022-10-28T17:38:29;23.21;52.47
65472;DHT22;52068;50.710;14.492;2022-10-28T17:40:54;23.11;52.49
65472;DHT22;52068;50.710;14.492;2022-10-28T17:43:20;23.08;52.73
65472;DHT22;52068;50.710;14.492;2022-10-28T17:45:46;23.04;52.91
65472;DHT22;52068;50.710;14.492;2022-10-28T17:48:11;22.99;53.03